createdAt,value
2022-07-31T00:00:12.178Z,3.15
2022-07-31T00:02:41.185Z,3.08
2022-07-31T00:05:09.008Z,3.45
2022-07-31T00:07:35.385Z,3.58
2022-07-31T00:10:01.735Z,3.25
2022-07-31T00:12:28.107Z,3.17
2022-07-31T00:14:54.476Z,3.42
2022-07-31T00:17:21.058Z,3.55
2022-07-31T00:19:47.366Z,3.38
2022-07-31T00:22:13.749Z,3.08
2022-07-31T00:24:40.189Z,3.33
2022-07-31T00:27:06.897Z,3.33
2022-07-31T00:29:33.514Z,2.92
2022-07-31T00:31:59.837Z,3.10
2022-07-31T00:34:26.184Z,3.33
2022-07-31T00:36:52.522Z,3.30
2022-07-31T00:39:19.265Z,3.28
2022-07-31T00:41:46.585Z,3.30
2022-07-31T00:44:13.601Z,3.75
2022-07-31T00:46:40.552Z,3.10
2022-07-31T00:49:08.491Z,3.20
2022-07-31T00:51:34.855Z,3.40
2022-07-31T00:54:01.329Z,3.42
2022-07-31T00:56:27.702Z,3.20
2022-07-31T00:58:55.252Z,3.20
2022-07-31T01:01:22.730Z,3.25
2022-07-31T01:03:49.718Z,3.00
2022-07-31T01:06:16.120Z,3.15
2022-07-31T01:08:42.527Z,3.63
2022-07-31T01:11:13.614Z,3.47
2022-07-31T01:13:52.529Z,3.42
2022-07-31T01:16:19.632Z,3.53
2022-07-31T01:18:46.599Z,3.55
2022-07-31T01:21:19.171Z,3.40
2022-07-31T01:23:51.193Z,3.22
2022-07-31T01:29:13.749Z,3.58
2022-07-31T01:31:46.209Z,3.42
2022-07-31T01:34:31.300Z,3.20
2022-07-31T01:37:05.212Z,3.75
2022-07-31T01:39:34.114Z,3.97
2022-07-31T01:42:03.403Z,3.40
2022-07-31T01:44:31.466Z,3.17
2022-07-31T01:46:58.661Z,3.50
2022-07-31T01:49:26.141Z,3.50
2022-07-31T01:51:52.805Z,3.30
2022-07-31T01:54:21.971Z,3.67
2022-07-31T01:56:50.582Z,3.60
2022-07-31T01:59:20.277Z,3.72
2022-07-31T02:02:12.105Z,3.15
2022-07-31T02:04:38.764Z,3.70
2022-07-31T02:07:06.527Z,3.80
2022-07-31T02:09:33.421Z,3.70
2022-07-31T02:12:00.635Z,4.00
2022-07-31T02:14:28.544Z,3.45
2022-07-31T02:16:55.357Z,3.70
2022-07-31T02:19:34.913Z,4.05
2022-07-31T02:22:01.805Z,3.85
2022-07-31T02:24:28.420Z,3.53
2022-07-31T02:26:54.848Z,3.30
2022-07-31T02:29:21.801Z,3.63
2022-07-31T02:32:02.806Z,3.33
2022-07-31T02:34:31.692Z,3.67
2022-07-31T02:37:00.017Z,3.60
2022-07-31T02:39:30.454Z,3.47
2022-07-31T02:41:59.307Z,3.78
2022-07-31T02:44:27.128Z,3.85
2022-07-31T02:46:53.994Z,3.67
2022-07-31T02:49:21.297Z,3.72
2022-07-31T02:51:47.853Z,3.70
2022-07-31T02:54:17.256Z,3.63
2022-07-31T02:56:44.076Z,3.60
2022-07-31T02:59:10.534Z,3.63
2022-07-31T03:01:54.587Z,3.38
2022-07-31T03:04:21.570Z,3.38
2022-07-31T03:06:51.070Z,3.75
2022-07-31T03:09:17.542Z,3.60
2022-07-31T03:11:45.681Z,3.67
2022-07-31T03:14:12.479Z,3.25
2022-07-31T03:16:39.895Z,3.67
2022-07-31T03:19:08.306Z,3.65
2022-07-31T03:21:35.474Z,3.80
2022-07-31T03:24:03.499Z,4.00
2022-07-31T03:26:30.247Z,3.88
2022-07-31T03:28:59.713Z,3.97
2022-07-31T03:31:26.128Z,3.78
2022-07-31T03:33:52.593Z,4.15
2022-07-31T03:36:19.106Z,3.65
2022-07-31T03:38:50.144Z,3.97
2022-07-31T03:41:28.381Z,3.88
2022-07-31T03:43:54.975Z,3.75
2022-07-31T03:46:22.142Z,3.80
2022-07-31T03:48:52.134Z,3.40
2022-07-31T03:51:19.155Z,3.92
2022-07-31T03:53:46.222Z,3.95
2022-07-31T03:56:32.708Z,4.00
2022-07-31T03:58:59.200Z,4.03
2022-07-31T04:01:27.483Z,3.60
2022-07-31T04:04:18.755Z,3.80
2022-07-31T04:06:57.298Z,4.13
2022-07-31T04:09:23.751Z,4.00
2022-07-31T04:11:50.138Z,3.90
2022-07-31T04:14:16.504Z,3.60
2022-07-31T04:16:42.882Z,3.75
2022-07-31T04:19:09.340Z,3.70
2022-07-31T04:21:35.860Z,3.95
2022-07-31T04:24:02.270Z,3.67
2022-07-31T04:26:56.082Z,3.72
2022-07-31T04:29:28.581Z,3.75
2022-07-31T04:31:55.673Z,4.22
2022-07-31T04:34:28.986Z,4.05
2022-07-31T04:36:55.353Z,3.63
2022-07-31T04:39:21.846Z,3.33
2022-07-31T04:41:48.239Z,3.65
2022-07-31T04:44:15.178Z,3.50
2022-07-31T04:46:57.931Z,3.45
2022-07-31T04:49:25.087Z,3.50
2022-07-31T04:51:52.882Z,3.30
2022-07-31T04:54:19.457Z,3.13
2022-07-31T04:56:48.303Z,3.05
2022-07-31T04:59:16.048Z,3.40
2022-07-31T05:01:46.213Z,3.67
2022-07-31T05:04:15.366Z,3.50
2022-07-31T05:06:46.074Z,3.45
2022-07-31T05:09:18.460Z,3.33
2022-07-31T05:11:46.689Z,3.55
2022-07-31T05:14:13.625Z,3.30
2022-07-31T05:16:40.061Z,3.70
2022-07-31T05:19:13.889Z,3.47
2022-07-31T05:22:11.430Z,3.50
2022-07-31T05:25:04.256Z,3.40
2022-07-31T05:27:32.232Z,3.28
2022-07-31T05:30:02.636Z,3.55
2022-07-31T05:32:31.038Z,3.42
2022-07-31T05:34:57.378Z,3.63
2022-07-31T05:37:24.002Z,3.25
2022-07-31T05:39:50.459Z,3.30
2022-07-31T05:42:35.330Z,3.50
2022-07-31T05:45:24.556Z,3.35
2022-07-31T05:47:50.972Z,3.45
2022-07-31T05:50:17.898Z,3.67
2022-07-31T05:52:45.404Z,3.80
2022-07-31T05:55:35.906Z,3.75
2022-07-31T06:00:47.897Z,3.53
2022-07-31T06:03:14.459Z,3.30
2022-07-31T06:05:43.811Z,3.60
2022-07-31T06:08:10.795Z,3.40
2022-07-31T06:10:41.249Z,3.60
2022-07-31T06:13:07.592Z,3.10
2022-07-31T06:15:36.485Z,3.50
2022-07-31T06:18:03.952Z,3.53
2022-07-31T06:20:31.250Z,3.22
2022-07-31T06:22:58.319Z,3.65
2022-07-31T06:25:31.798Z,3.35
2022-07-31T06:28:00.003Z,3.40
2022-07-31T06:30:27.821Z,3.45
2022-07-31T06:32:54.665Z,3.58
2022-07-31T06:35:21.651Z,3.92
2022-07-31T06:38:10.613Z,3.65
2022-07-31T06:40:56.912Z,4.00
2022-07-31T06:43:45.809Z,4.35
2022-07-31T06:46:35.072Z,3.92
2022-07-31T06:49:19.892Z,3.97
2022-07-31T06:51:47.354Z,3.88
2022-07-31T06:54:13.685Z,3.00
2022-07-31T06:56:40.186Z,3.65
2022-07-31T06:59:07.181Z,3.65
2022-07-31T07:01:33.969Z,3.90
2022-07-31T07:04:00.562Z,3.80
2022-07-31T07:06:27.019Z,3.65
2022-07-31T07:08:53.479Z,3.30
2022-07-31T07:11:22.919Z,3.40
2022-07-31T07:13:49.761Z,3.30
2022-07-31T07:16:18.039Z,3.10
2022-07-31T07:18:44.621Z,3.65
2022-07-31T07:21:11.364Z,3.55
2022-07-31T07:23:38.324Z,3.60
2022-07-31T07:26:39.761Z,3.47
2022-07-31T07:29:06.865Z,3.50
2022-07-31T07:31:33.217Z,3.95
2022-07-31T07:34:01.463Z,3.58
2022-07-31T07:36:27.908Z,3.65
2022-07-31T07:39:09.153Z,3.40
2022-07-31T07:41:35.690Z,3.20
2022-07-31T07:44:02.648Z,3.85
2022-07-31T07:46:30.436Z,3.50
2022-07-31T07:49:00.182Z,3.83
2022-07-31T07:51:35.397Z,3.90
2022-07-31T07:54:26.770Z,3.72
2022-07-31T07:57:16.117Z,3.50
2022-07-31T07:59:54.569Z,3.67
2022-07-31T08:02:41.090Z,3.28
2022-07-31T08:05:08.672Z,3.80
2022-07-31T08:07:42.072Z,3.72
2022-07-31T08:10:29.270Z,3.33
2022-07-31T08:13:05.248Z,3.70
2022-07-31T08:15:50.289Z,3.50
2022-07-31T08:18:28.422Z,2.90
2022-07-31T08:20:55.371Z,3.10
2022-07-31T08:23:21.730Z,3.13
2022-07-31T08:25:48.109Z,3.25
2022-07-31T08:28:19.612Z,2.65
2022-07-31T08:30:50.899Z,3.08
2022-07-31T08:33:19.650Z,3.83
2022-07-31T08:35:53.849Z,3.10
2022-07-31T08:38:20.889Z,2.92
2022-07-31T08:41:05.799Z,3.47
2022-07-31T08:44:00.098Z,3.50
2022-07-31T08:46:19.563Z,3.10
2022-07-31T08:48:47.419Z,2.80
2022-07-31T08:51:15.382Z,3.10
2022-07-31T08:54:20.586Z,2.80
2022-07-31T08:56:52.137Z,3.33
2022-07-31T08:59:19.826Z,3.22
2022-07-31T09:01:46.329Z,3.35
2022-07-31T09:04:12.721Z,3.40
2022-07-31T09:06:39.074Z,3.08
2022-07-31T09:09:06.396Z,2.92
2022-07-31T09:11:33.977Z,2.80
2022-07-31T09:14:31.014Z,2.45
2022-07-31T09:16:57.455Z,2.67
2022-07-31T09:19:52.132Z,2.70
2022-07-31T09:22:24.883Z,3.15
2022-07-31T09:24:52.563Z,2.47
2022-07-31T09:27:19.494Z,2.92
2022-07-31T09:29:48.961Z,3.08
2022-07-31T09:32:30.758Z,2.80
2022-07-31T09:35:12.980Z,3.25
2022-07-31T09:37:40.485Z,2.63
2022-07-31T09:40:33.989Z,2.95
2022-07-31T09:43:31.467Z,3.30
2022-07-31T09:45:58.965Z,3.20
2022-07-31T09:48:26.217Z,2.80
2022-07-31T09:50:54.682Z,3.03
2022-07-31T09:53:22.411Z,3.17
2022-07-31T09:55:54.298Z,2.50
2022-07-31T09:58:21.161Z,3.00
2022-07-31T10:00:49.907Z,2.80
2022-07-31T10:03:18.672Z,2.97
2022-07-31T10:05:46.631Z,3.00
2022-07-31T10:08:14.198Z,3.10
2022-07-31T10:11:07.010Z,2.97
2022-07-31T10:13:49.736Z,3.25
2022-07-31T10:16:16.505Z,2.70
2022-07-31T10:19:11.130Z,2.90
2022-07-31T10:21:59.609Z,2.50
2022-07-31T10:24:31.710Z,3.00
2022-07-31T10:27:01.576Z,2.30
2022-07-31T10:29:32.318Z,2.78
2022-07-31T10:32:00.601Z,2.55
2022-07-31T10:34:28.297Z,2.75
2022-07-31T10:37:51.804Z,2.60
2022-07-31T10:40:50.773Z,2.22
2022-07-31T10:43:20.131Z,2.25
2022-07-31T10:46:04.167Z,2.67
2022-07-31T10:48:52.005Z,2.45
2022-07-31T10:51:47.817Z,2.20
2022-07-31T10:54:40.482Z,2.35
2022-07-31T10:57:31.727Z,2.63
2022-07-31T11:00:19.041Z,2.20
2022-07-31T11:03:17.513Z,2.40
2022-07-31T11:06:16.042Z,2.33
2022-07-31T11:08:54.666Z,2.42
2022-07-31T11:11:39.311Z,2.45
2022-07-31T11:14:39.545Z,2.13
2022-07-31T11:18:22.652Z,2.15
2022-07-31T11:20:31.871Z,2.60
2022-07-31T11:23:03.445Z,2.50
2022-07-31T11:25:30.449Z,2.70
2022-07-31T11:27:57.941Z,2.17
2022-07-31T11:30:24.277Z,2.50
2022-07-31T11:32:51.602Z,2.50
2022-07-31T11:35:29.295Z,2.25
2022-07-31T11:37:58.123Z,2.40
2022-07-31T11:40:27.917Z,2.50
2022-07-31T11:43:23.124Z,2.50
2022-07-31T11:45:51.989Z,2.28
2022-07-31T11:48:19.404Z,2.65
2022-07-31T11:50:46.452Z,2.35
2022-07-31T11:53:12.916Z,2.38
2022-07-31T11:55:51.678Z,1.98
2022-07-31T11:58:19.370Z,2.17
2022-07-31T12:00:46.458Z,2.17
2022-07-31T12:03:12.862Z,2.08
2022-07-31T12:05:46.543Z,2.25
2022-07-31T12:08:13.506Z,2.35
2022-07-31T12:10:40.536Z,2.33
2022-07-31T12:13:15.447Z,2.30
2022-07-31T12:15:53.568Z,2.40
2022-07-31T12:18:20.011Z,2.00
2022-07-31T12:20:57.064Z,2.72
2022-07-31T12:23:38.422Z,2.47
2022-07-31T12:26:07.667Z,2.45
2022-07-31T12:28:34.052Z,2.53
2022-07-31T12:31:00.488Z,2.10
2022-07-31T12:33:29.901Z,2.20
2022-07-31T12:35:57.287Z,1.90
2022-07-31T12:38:40.848Z,2.20
2022-07-31T12:41:07.672Z,2.88
2022-07-31T12:43:36.160Z,2.50
2022-07-31T12:46:05.067Z,2.42
2022-07-31T12:48:40.140Z,2.40
2022-07-31T12:51:08.516Z,2.28
2022-07-31T12:53:34.877Z,2.42
2022-07-31T12:56:01.331Z,2.25
2022-07-31T12:58:27.674Z,2.67
2022-07-31T13:00:54.913Z,2.40
2022-07-31T13:03:21.345Z,2.10
2022-07-31T13:05:51.913Z,2.55
2022-07-31T13:08:18.565Z,2.10
2022-07-31T13:10:46.041Z,2.05
2022-07-31T13:13:12.385Z,2.20
2022-07-31T13:15:38.827Z,2.00
2022-07-31T13:18:05.240Z,2.28
2022-07-31T13:20:31.612Z,2.40
2022-07-31T13:22:59.252Z,2.40
2022-07-31T13:25:26.573Z,2.40
2022-07-31T13:27:53.028Z,2.10
2022-07-31T13:30:19.425Z,1.90
2022-07-31T13:32:45.795Z,2.45
2022-07-31T13:35:24.029Z,2.10
2022-07-31T13:37:55.184Z,2.15
2022-07-31T13:40:44.491Z,2.30
2022-07-31T13:43:11.070Z,2.28
2022-07-31T13:45:37.652Z,1.83
2022-07-31T13:48:08.922Z,2.50
2022-07-31T13:50:37.374Z,2.10
2022-07-31T13:53:04.554Z,2.30
2022-07-31T13:55:30.908Z,2.58
2022-07-31T13:58:01.162Z,2.50
2022-07-31T14:00:27.982Z,2.33
2022-07-31T14:02:54.329Z,3.78
2022-07-31T14:05:20.664Z,3.25
2022-07-31T14:07:51.975Z,2.75
2022-07-31T14:10:20.964Z,2.40
2022-07-31T14:12:47.762Z,2.40
2022-07-31T14:15:14.313Z,2.30
2022-07-31T14:17:40.631Z,2.58
2022-07-31T14:20:07.236Z,2.45
2022-07-31T14:22:33.598Z,2.70
2022-07-31T14:24:59.938Z,2.65
2022-07-31T14:27:26.510Z,2.88
2022-07-31T14:29:52.920Z,2.60
2022-07-31T14:32:21.701Z,2.40
2022-07-31T14:34:48.885Z,2.17
2022-07-31T14:37:15.231Z,2.50
2022-07-31T14:39:42.774Z,2.45
2022-07-31T14:42:09.741Z,2.10
2022-07-31T14:44:36.812Z,2.75
2022-07-31T14:47:04.508Z,2.47
2022-07-31T14:50:08.680Z,1.85
2022-07-31T14:52:17.849Z,1.98
2022-07-31T14:54:44.189Z,2.35
2022-07-31T14:57:10.781Z,2.20
2022-07-31T14:59:37.125Z,2.70
2022-07-31T15:02:03.440Z,2.50
2022-07-31T15:04:29.811Z,2.05
2022-07-31T15:07:13.124Z,2.17
2022-07-31T15:09:42.576Z,2.13
2022-07-31T15:12:09.069Z,2.17
2022-07-31T15:14:35.391Z,2.00
2022-07-31T15:17:01.932Z,1.98
2022-07-31T15:19:28.374Z,2.00
2022-07-31T15:22:15.626Z,2.10
2022-07-31T15:24:46.332Z,2.17
2022-07-31T15:27:15.821Z,2.08
2022-07-31T15:30:03.737Z,2.10
2022-07-31T15:32:29.341Z,1.77
2022-07-31T15:34:55.689Z,2.00
2022-07-31T15:37:22.023Z,2.13
2022-07-31T15:40:03.341Z,1.92
2022-07-31T15:42:33.900Z,1.98
2022-07-31T15:45:00.305Z,2.00
2022-07-31T15:47:26.693Z,1.88
2022-07-31T15:49:53.048Z,2.05
2022-07-31T15:52:19.775Z,1.80
2022-07-31T15:54:46.585Z,2.40
2022-07-31T15:57:13.353Z,1.83
2022-07-31T15:59:39.737Z,2.80
2022-07-31T16:02:06.433Z,3.60
2022-07-31T16:04:32.901Z,2.17
2022-07-31T16:07:00.317Z,1.90
2022-07-31T16:10:02.524Z,2.00
2022-07-31T16:12:33.732Z,1.63
2022-07-31T16:15:00.239Z,2.35
2022-07-31T16:17:37.782Z,2.50
2022-07-31T16:20:25.340Z,2.55
2022-07-31T16:22:54.510Z,2.13
2022-07-31T16:25:21.484Z,1.90
2022-07-31T16:27:47.828Z,1.65
2022-07-31T16:30:15.022Z,1.80
2022-07-31T16:32:41.906Z,1.70
2022-07-31T16:35:08.715Z,1.70
2022-07-31T16:37:51.327Z,1.70
2022-07-31T16:40:29.040Z,1.70
2022-07-31T16:43:01.897Z,1.73
2022-07-31T16:45:29.536Z,1.80
2022-07-31T16:47:55.865Z,1.50
2022-07-31T16:50:22.418Z,1.80
2022-07-31T16:52:52.630Z,1.90
2022-07-31T16:55:20.770Z,1.90
2022-07-31T16:58:10.880Z,2.03
2022-07-31T17:00:37.986Z,1.88
2022-07-31T17:03:04.445Z,1.63
2022-07-31T17:05:30.911Z,1.70
2022-07-31T17:07:57.219Z,1.70
2022-07-31T17:10:23.698Z,1.75
2022-07-31T17:12:50.169Z,1.70
2022-07-31T17:15:16.501Z,1.73
2022-07-31T17:17:42.878Z,1.88
2022-07-31T17:20:09.590Z,1.50
2022-07-31T17:22:37.934Z,1.60
2022-07-31T17:25:06.838Z,1.70
2022-07-31T17:27:33.855Z,1.90
2022-07-31T17:30:00.329Z,1.50
2022-07-31T17:32:26.849Z,1.77
2022-07-31T17:34:53.308Z,1.70
2022-07-31T17:37:19.718Z,2.10
2022-07-31T17:39:46.544Z,1.70
2022-07-31T17:42:13.130Z,1.58
2022-07-31T17:44:40.041Z,1.90
2022-07-31T17:47:07.553Z,1.88
2022-07-31T17:49:34.391Z,1.90
2022-07-31T17:52:00.892Z,1.65
2022-07-31T17:54:28.198Z,1.70
2022-07-31T17:56:54.582Z,1.80
2022-07-31T17:59:21.108Z,1.80
2022-07-31T18:01:52.006Z,1.70
2022-07-31T18:04:19.060Z,1.95
2022-07-31T18:06:45.405Z,2.00
2022-07-31T18:09:11.878Z,2.10
2022-07-31T18:11:38.241Z,2.13
2022-07-31T18:14:05.039Z,2.30
2022-07-31T18:16:31.582Z,2.20
2022-07-31T18:18:57.938Z,2.10
2022-07-31T18:21:24.293Z,2.08
2022-07-31T18:23:50.687Z,2.10
2022-07-31T18:26:17.100Z,2.10
2022-07-31T18:28:43.441Z,2.03
2022-07-31T18:31:30.773Z,1.92
2022-07-31T18:33:56.278Z,2.15
2022-07-31T18:36:22.732Z,2.00
2022-07-31T18:38:49.204Z,1.90
2022-07-31T18:41:15.589Z,2.20
2022-07-31T18:43:41.996Z,1.90
2022-07-31T18:46:08.474Z,2.03
2022-07-31T18:48:34.876Z,1.70
2022-07-31T18:51:05.297Z,2.08
2022-07-31T18:53:32.495Z,2.00
2022-07-31T18:55:58.903Z,2.22
2022-07-31T18:58:25.316Z,2.00
2022-07-31T19:00:55.087Z,2.17
2022-07-31T19:03:21.961Z,1.85
2022-07-31T19:05:49.973Z,2.10
2022-07-31T19:08:16.333Z,1.80
2022-07-31T19:10:42.781Z,1.80
2022-07-31T19:13:09.121Z,1.70
2022-07-31T19:15:45.621Z,1.60
2022-07-31T19:18:12.009Z,1.95
2022-07-31T19:20:57.450Z,1.80
2022-07-31T19:23:26.776Z,1.80
2022-07-31T19:26:03.126Z,1.80
2022-07-31T19:28:31.057Z,2.03
2022-07-31T19:30:57.378Z,1.67
2022-07-31T19:33:23.768Z,1.83
2022-07-31T19:35:55.440Z,1.83
2022-07-31T19:38:25.074Z,1.80
2022-07-31T19:40:51.468Z,2.22
2022-07-31T19:43:17.782Z,2.00
2022-07-31T19:45:58.694Z,2.08
2022-07-31T19:48:33.813Z,2.10
2022-07-31T19:51:00.223Z,2.25
2022-07-31T19:53:26.590Z,2.30
2022-07-31T19:55:52.917Z,2.90
2022-07-31T19:58:21.080Z,2.00
2022-07-31T20:00:47.537Z,2.42
2022-07-31T20:03:14.023Z,2.13
2022-07-31T20:05:40.937Z,2.20
2022-07-31T20:08:07.297Z,2.25
2022-07-31T20:10:33.678Z,2.63
2022-07-31T20:13:00.092Z,2.33
2022-07-31T20:15:26.544Z,2.22
2022-07-31T20:18:13.051Z,2.33
2022-07-31T20:20:58.561Z,2.60
2022-07-31T20:23:25.641Z,2.60
2022-07-31T20:25:52.094Z,2.60
2022-07-31T20:28:18.458Z,2.65
2022-07-31T20:30:44.857Z,2.67
2022-07-31T20:33:13.350Z,2.55
2022-07-31T20:35:48.575Z,2.70
2022-07-31T20:38:20.070Z,3.20
2022-07-31T20:40:54.225Z,2.50
2022-07-31T20:43:26.016Z,2.50
2022-07-31T20:45:53.217Z,2.80
2022-07-31T20:48:21.752Z,3.10
2022-07-31T20:50:48.662Z,2.63
2022-07-31T20:53:15.654Z,2.85
2022-07-31T20:55:46.606Z,2.47
2022-07-31T20:58:13.117Z,2.10
2022-07-31T21:00:40.050Z,2.30
2022-07-31T21:03:06.453Z,2.00
2022-07-31T21:05:32.803Z,2.20
2022-07-31T21:07:59.201Z,2.50
2022-07-31T21:10:29.516Z,2.30
2022-07-31T21:12:56.837Z,2.40
2022-07-31T21:15:41.022Z,2.45
2022-07-31T21:18:13.526Z,2.13
2022-07-31T21:20:51.383Z,2.42
2022-07-31T21:23:20.817Z,2.30
2022-07-31T21:25:47.484Z,2.30
2022-07-31T21:28:13.892Z,2.20
2022-07-31T21:30:40.854Z,2.10
2022-07-31T21:33:07.854Z,2.25
2022-07-31T21:35:37.088Z,2.38
2022-07-31T21:38:04.358Z,2.10
2022-07-31T21:40:31.373Z,2.10
2022-07-31T21:42:57.887Z,2.22
2022-07-31T21:45:25.152Z,2.20
2022-07-31T21:47:55.650Z,2.10
2022-07-31T21:50:28.849Z,2.20
2022-07-31T21:52:55.775Z,2.45
2022-07-31T21:55:22.111Z,2.42
2022-07-31T21:57:57.234Z,2.50
2022-07-31T22:00:28.849Z,2.53
2022-07-31T22:02:56.360Z,2.72
2022-07-31T22:05:41.497Z,2.40
2022-07-31T22:08:07.832Z,2.60
2022-07-31T22:10:34.239Z,2.65
2022-07-31T22:13:00.593Z,2.58
2022-07-31T22:15:26.905Z,2.08
2022-07-31T22:18:13.484Z,2.40
2022-07-31T22:20:40.032Z,2.13
2022-07-31T22:23:06.480Z,2.30
2022-07-31T22:25:32.913Z,2.10
2022-07-31T22:28:00.404Z,2.13
2022-07-31T22:30:28.133Z,2.25
2022-07-31T22:32:56.702Z,2.45
2022-07-31T22:35:23.175Z,2.40
2022-07-31T22:37:49.829Z,2.20
2022-07-31T22:40:16.991Z,2.20
2022-07-31T22:42:43.803Z,1.98
2022-07-31T22:45:23.010Z,2.15
2022-07-31T22:47:49.712Z,2.17
2022-07-31T22:50:16.295Z,2.20
2022-07-31T22:52:43.532Z,2.00
2022-07-31T22:55:11.105Z,2.00
2022-07-31T22:57:37.829Z,2.20
2022-07-31T23:00:05.881Z,2.50
2022-07-31T23:02:32.297Z,2.08
2022-07-31T23:04:58.654Z,2.35
2022-07-31T23:07:24.994Z,2.60
2022-07-31T23:09:51.310Z,2.40
2022-07-31T23:12:17.731Z,2.25
2022-07-31T23:14:44.044Z,2.22
2022-07-31T23:17:10.423Z,2.20
2022-07-31T23:19:49.984Z,2.40
2022-07-31T23:22:33.161Z,2.10
2022-07-31T23:25:00.016Z,2.30
2022-07-31T23:27:26.381Z,2.03
2022-07-31T23:29:52.786Z,2.20
2022-07-31T23:32:19.145Z,1.90
2022-07-31T23:34:45.465Z,2.10
2022-07-31T23:37:11.790Z,1.85
2022-07-31T23:39:38.121Z,2.10
2022-07-31T23:42:23.346Z,2.25
2022-07-31T23:44:49.669Z,2.20
2022-07-31T23:47:16.354Z,2.30
2022-07-31T23:49:42.758Z,2.50
2022-07-31T23:52:09.106Z,2.10
2022-07-31T23:54:35.442Z,2.30
2022-07-31T23:57:01.770Z,1.92
2022-07-31T23:59:28.175Z,2.30
